Time;durP1;ratioP1;P1;durP2;ratioP2;P2;SDS_P1;SDS_P2;PMS_P1;PMS_P2;Temp;Humidity;BMP_temperature;BMP_pressure;BME280_temperature;BME280_humidity;BME280_pressure;Samples;Min_cycle;Max_cycle;Signal;HPM_P1;HPM_P2
2022/10/27 00:01:14;;;;;;;20.77;14.32;;;;;;;12.71;100.00;102035.66;5050483;28;20108;-60
2022/10/27 00:03:40;;;;;;;20.38;13.93;;;;;;;12.70;100.00;102036.81;5051923;28;20330;-60
2022/10/27 00:06:07;;;;;;;23.13;14.80;;;;;;;12.60;100.00;102029.38;5051694;28;20032;-60
2022/10/27 00:08:33;;;;;;;21.45;15.27;;;;;;;12.60;100.00;102046.03;5051687;28;20473;-59
2022/10/27 00:11:01;;;;;;;22.30;14.10;;;;;;;12.58;100.00;102044.69;5051563;28;20149;-61
2022/10/27 00:13:26;;;;;;;21.38;14.80;;;;;;;12.53;100.00;102039.16;5051790;28;20021;-61
2022/10/27 00:15:59;;;;;;;20.00;14.23;;;;;;;12.49;100.00;102050.03;5051718;28;20037;-61
2022/10/27 00:18:25;;;;;;;21.92;14.80;;;;;;;12.47;100.00;102050.31;5051850;28;20106;-61
2022/10/27 00:21:03;;;;;;;21.92;15.27;;;;;;;12.43;100.00;102045.63;5051505;28;20476;-60
2022/10/27 00:23:29;;;;;;;22.23;14.73;;;;;;;12.43;100.00;102042.88;5050891;28;20032;-61
2022/10/27 00:25:55;;;;;;;22.95;15.05;;;;;;;12.39;100.00;102042.63;5065297;23;20080;-60
2022/10/27 00:28:21;;;;;;;23.10;14.55;;;;;;;12.41;100.00;102047.88;5052613;28;20401;-60
2022/10/27 00:30:46;;;;;;;23.55;14.82;;;;;;;12.37;100.00;102046.81;5052477;28;20032;-60
2022/10/27 00:33:12;;;;;;;23.08;14.85;;;;;;;12.35;100.00;102046.25;5052535;28;20032;-61
2022/10/27 00:35:37;;;;;;;22.50;14.93;;;;;;;12.31;100.00;102040.47;5052811;28;20025;-61
2022/10/27 00:38:02;;;;;;;24.00;15.80;;;;;;;12.27;100.00;102045.75;5051185;28;20170;-61
2022/10/27 00:40:27;;;;;;;21.42;14.73;;;;;;;12.26;100.00;102046.88;5052612;28;20028;-61
2022/10/27 00:42:53;;;;;;;21.15;14.93;;;;;;;12.23;100.00;102054.94;5052553;28;20021;-60
2022/10/27 00:45:19;;;;;;;23.30;15.55;;;;;;;12.19;100.00;102051.91;5052428;28;20033;-61
2022/10/27 00:47:45;;;;;;;23.90;15.35;;;;;;;12.17;100.00;102059.69;5051033;28;20025;-60
2022/10/27 00:50:18;;;;;;;25.88;15.27;;;;;;;12.15;100.00;102054.41;5052267;28;20021;-61
2022/10/27 00:52:47;;;;;;;23.23;14.98;;;;;;;12.11;100.00;102053.34;5052562;28;20028;-60
2022/10/27 00:55:23;;;;;;;22.25;15.68;;;;;;;12.10;100.00;102056.41;5052403;28;20025;-61
2022/10/27 00:57:51;;;;;;;22.17;14.70;;;;;;;12.08;100.00;102067.78;5052265;28;20055;-61
2022/10/27 01:00:17;;;;;;;22.15;15.05;;;;;;;12.06;100.00;102056.13;5052044;28;20374;-61
2022/10/27 01:02:43;;;;;;;22.35;14.95;;;;;;;12.05;100.00;102064.75;5052105;28;20155;-61
2022/10/27 01:05:09;;;;;;;23.25;15.85;;;;;;;12.05;100.00;102062.81;5052140;28;20025;-61
2022/10/27 01:07:34;;;;;;;23.45;15.75;;;;;;;12.02;100.00;102063.41;5052167;28;20031;-61
2022/10/27 01:10:00;;;;;;;23.70;15.50;;;;;;;12.05;100.00;102060.03;5051961;28;20421;-61
2022/10/27 01:12:25;;;;;;;21.77;14.60;;;;;;;12.02;100.00;102068.94;5051889;28;20052;-61
2022/10/27 01:14:51;;;;;;;23.77;14.82;;;;;;;12.05;100.00;102064.75;5051909;28;20128;-61
2022/10/27 01:17:52;;;;;;;21.58;14.52;;;;;;;12.06;100.00;102067.22;5051821;28;20414;-61
2022/10/27 01:21:13;;;;;;;20.75;15.02;;;;;;;12.07;100.00;102070.84;5051861;28;20061;-61
2022/10/27 01:24:10;;;;;;;22.30;14.77;;;;;;;12.07;100.00;102062.53;4990590;28;20459;-61
2022/10/27 01:26:48;;;;;;;23.67;15.20;;;;;;;12.08;100.00;102075.28;5051571;28;20089;-61
2022/10/27 01:29:37;;;;;;;23.42;14.75;;;;;;;12.10;100.00;102070.25;5050480;28;20048;-61
2022/10/27 01:32:25;;;;;;;22.83;15.68;;;;;;;12.11;100.00;102075.53;5051806;28;20025;-61
2022/10/27 01:35:05;;;;;;;22.00;15.02;;;;;;;12.14;100.00;102074.94;5052738;28;20029;-61
2022/10/27 01:37:37;;;;;;;21.92;14.43;;;;;;;12.14;100.00;102074.94;5055807;28;20168;-61
2022/10/27 01:40:34;;;;;;;23.58;15.13;;;;;;;12.17;100.00;102071.63;5055815;28;20064;-60
2022/10/27 01:43:04;;;;;;;21.20;14.75;;;;;;;12.19;100.00;102073.28;5055150;28;20048;-60
2022/10/27 01:45:35;;;;;;;21.40;14.55;;;;;;;12.20;100.00;102084.06;5055673;28;20140;-60
2022/10/27 01:48:03;;;;;;;23.15;15.85;;;;;;;12.20;100.00;102078.53;5055472;28;20112;-60
2022/10/27 01:50:32;;;;;;;22.20;14.88;;;;;;;12.21;100.00;102068.28;5055284;28;20079;-59
2022/10/27 01:52:58;;;;;;;22.83;15.45;;;;;;;12.24;100.00;102071.28;5055511;28;20040;-60
2022/10/27 01:55:26;;;;;;;23.23;15.68;;;;;;;12.28;100.00;102068.78;5055431;28;20028;-60
2022/10/27 01:57:59;;;;;;;21.05;14.85;;;;;;;12.29;100.00;102076.81;5055390;28;20078;-60
2022/10/27 02:00:24;;;;;;;22.38;15.32;;;;;;;12.30;100.00;102072.09;5055284;28;20046;-60
2022/10/27 02:03:03;;;;;;;22.02;15.45;;;;;;;12.30;100.00;102075.69;5055239;28;20029;-60
2022/10/27 02:05:58;;;;;;;22.40;14.60;;;;;;;12.32;100.00;102076.22;5055311;28;20040;-61
2022/10/27 02:08:30;;;;;;;23.17;15.10;;;;;;;12.34;100.00;102067.63;5055271;28;20113;-61
2022/10/27 02:11:05;;;;;;;21.63;14.75;;;;;;;12.31;100.00;102060.69;5055071;28;20105;-61
2022/10/27 02:13:33;;;;;;;22.15;14.70;;;;;;;12.35;100.00;102060.13;5055307;28;20079;-60
2022/10/27 02:16:03;;;;;;;20.15;13.88;;;;;;;12.32;100.00;102067.09;5054938;28;20111;-60
2022/10/27 02:18:32;;;;;;;21.98;14.73;;;;;;;12.26;100.00;102057.13;5054824;28;20032;-61
2022/10/27 02:21:06;;;;;;;21.95;14.35;;;;;;;12.27;100.00;102062.41;5054769;28;20043;-60
2022/10/27 02:23:33;;;;;;;22.02;15.00;;;;;;;12.27;100.00;102059.63;5054720;28;20040;-61
2022/10/27 02:26:10;;;;;;;23.90;14.60;;;;;;;12.26;100.00;102048.81;5054445;28;20120;-60
2022/10/27 02:28:46;;;;;;;22.63;14.32;;;;;;;12.22;100.00;102048.56;5054663;28;20118;-60
2022/10/27 02:31:15;;;;;;;22.15;15.48;;;;;;;12.20;100.00;102048.00;5054730;28;20028;-60
2022/10/27 02:33:40;;;;;;;22.80;15.55;;;;;;;12.20;100.00;102045.22;5054453;28;20021;-60
2022/10/27 02:36:05;;;;;;;22.10;14.30;;;;;;;12.19;100.00;102051.91;5054455;28;20049;-60
2022/10/27 02:38:31;;;;;;;22.05;14.95;;;;;;;12.17;100.00;102054.16;5054354;28;20029;-60
2022/10/27 02:40:56;;;;;;;19.92;14.20;;;;;;;12.15;100.00;102051.66;5054439;28;20031;-60
2022/10/27 02:43:21;;;;;;;23.40;14.82;;;;;;;12.13;100.00;102051.13;5054220;28;20021;-61
2022/10/27 02:45:47;;;;;;;20.83;14.73;;;;;;;12.13;100.00;102051.13;5053781;28;20025;-61
2022/10/27 02:48:12;;;;;;;22.90;15.02;;;;;;;12.11;100.00;102049.72;5054309;28;20056;-61
2022/10/27 02:50:37;;;;;;;20.90;14.77;;;;;;;12.11;100.00;102045.03;5054306;28;20112;-62
2022/10/27 02:53:02;;;;;;;21.67;15.20;;;;;;;12.11;100.00;102038.63;5054332;28;20078;-61
2022/10/27 02:55:28;;;;;;;21.75;15.07;;;;;;;12.09;100.00;102040.91;5053030;28;20067;-62
2022/10/27 02:57:53;;;;;;;21.65;14.38;;;;;;;12.08;100.00;102033.69;5054203;28;20047;-62
2022/10/27 03:00:18;;;;;;;21.60;14.95;;;;;;;12.07;100.00;102034.78;5053055;28;20040;-62
2022/10/27 03:02:46;;;;;;;21.75;14.80;;;;;;;12.05;100.00;102037.03;5054117;28;20104;-62
2022/10/27 03:05:11;;;;;;;20.55;13.98;;;;;;;12.04;100.00;102033.44;5054107;28;20074;-60
2022/10/27 03:07:37;;;;;;;21.88;14.15;;;;;;;12.01;100.00;102034.81;5054015;28;20029;-61
2022/10/27 03:10:02;;;;;;;20.52;13.05;;;;;;;12.02;100.00;102030.13;5053736;28;20074;-61
2022/10/27 03:12:27;;;;;;;22.70;13.85;;;;;;;11.98;100.00;102029.88;5054024;28;20029;-61
2022/10/27 03:14:53;;;;;;;21.77;13.68;;;;;;;11.96;100.00;102031.22;5054273;28;20033;-61
2022/10/27 03:17:18;;;;;;;20.10;13.35;;;;;;;11.93;100.00;102027.06;5053856;28;20486;-61
2022/10/27 03:19:43;;;;;;;22.13;14.00;;;;;;;11.92;100.00;102019.88;5053853;28;20021;-61
2022/10/27 03:22:08;;;;;;;22.05;14.23;;;;;;;11.89;100.00;102022.38;5053875;28;20029;-61
2022/10/27 03:24:34;;;;;;;20.77;13.70;;;;;;;11.84;100.00;102013.00;5053851;28;20025;-60
2022/10/27 03:26:59;;;;;;;23.20;13.63;;;;;;;11.84;100.00;102015.78;5053900;28;20041;-61
2022/10/27 03:29:25;;;;;;;22.42;13.57;;;;;;;11.79;100.00;102013.00;5053564;28;20053;-61
2022/10/27 03:31:51;;;;;;;20.95;14.10;;;;;;;11.77;100.00;102008.88;5053608;28;20377;-60
2022/10/27 03:34:16;;;;;;;22.63;13.98;;;;;;;11.76;100.00;102012.75;5053405;28;20021;-61
2022/10/27 03:36:41;;;;;;;22.20;13.57;;;;;;;11.74;100.00;102012.22;5053579;28;20448;-61
2022/10/27 03:39:07;;;;;;;21.52;14.35;;;;;;;11.73;100.00;102014.16;5053379;28;20036;-61
2022/10/27 03:41:32;;;;;;;23.52;13.85;;;;;;;11.70;100.00;102015.56;5053501;28;20029;-61
2022/10/27 03:43:57;;;;;;;19.98;13.88;;;;;;;11.69;100.00;102015.84;5053298;28;20106;-61
2022/10/27 03:46:23;;;;;;;24.55;15.40;;;;;;;11.65;100.00;102009.22;5053289;28;20031;-61
2022/10/27 03:48:48;;;;;;;21.05;15.18;;;;;;;11.65;100.00;102012.81;5053132;28;20017;-61
2022/10/27 03:51:13;;;;;;;21.63;14.65;;;;;;;11.63;100.00;102008.66;5052965;28;20123;-61
2022/10/27 03:53:39;;;;;;;22.27;14.70;;;;;;;11.61;100.00;102006.19;5053295;28;20037;-61
2022/10/27 03:56:04;;;;;;;23.48;15.32;;;;;;;11.60;100.00;102001.75;5053162;28;20496;-61
2022/10/27 03:58:29;;;;;;;23.13;15.50;;;;;;;11.58;100.00;102005.91;5053189;28;20142;-62
2022/10/27 04:01:00;;;;;;;23.52;15.60;;;;;;;11.57;100.00;102007.88;5053190;28;20402;-61
2022/10/27 04:03:25;;;;;;;23.92;17.73;;;;;;;11.56;100.00;102000.66;5052960;28;20025;-61
2022/10/27 04:05:50;;;;;;;25.88;17.83;;;;;;;11.57;100.00;102007.03;5053156;28;20108;-62
2022/10/27 04:08:16;;;;;;;25.30;18.50;;;;;;;11.56;100.00;102003.44;5053232;28;20392;-61
2022/10/27 04:10:41;;;;;;;25.48;17.88;;;;;;;11.53;100.00;101999.28;5053207;28;20392;-61
2022/10/27 04:13:06;;;;;;;24.17;17.02;;;;;;;11.52;100.00;102003.16;5052955;28;20029;-61
2022/10/27 04:15:32;;;;;;;24.70;17.13;;;;;;;11.50;100.00;102010.94;5052770;28;20017;-61
2022/10/27 04:17:58;;;;;;;25.08;17.88;;;;;;;11.47;100.00;102005.97;5052624;28;20108;-61
2022/10/27 04:20:25;;;;;;;24.55;17.67;;;;;;;11.44;100.00;102017.63;5052629;28;20361;-60
2022/10/27 04:22:50;;;;;;;25.05;17.50;;;;;;;11.43;100.00;102015.16;5052694;28;20017;-60
2022/10/27 04:25:16;;;;;;;22.90;16.75;;;;;;;11.41;100.00;102012.63;5052700;28;20025;-60
2022/10/27 04:27:41;;;;;;;22.67;17.15;;;;;;;11.39;100.00;102021.25;5051155;28;20029;-60
2022/10/27 04:30:07;;;;;;;22.80;16.30;;;;;;;11.37;100.00;102031.78;5052406;28;20025;-60
2022/10/27 04:32:32;;;;;;;24.90;17.25;;;;;;;11.36;100.00;102020.97;5050795;28;20040;-61
2022/10/27 04:34:58;;;;;;;22.65;16.48;;;;;;;11.31;100.00;102026.53;5052362;28;20025;-61
2022/10/27 04:37:23;;;;;;;24.13;17.73;;;;;;;11.29;100.00;102026.81;5050822;28;20021;-60
2022/10/27 04:39:48;;;;;;;23.50;16.92;;;;;;;11.32;100.00;102025.41;5052416;28;20088;-61
2022/10/27 04:42:14;;;;;;;23.77;16.83;;;;;;;11.28;100.00;102018.81;5052191;28;20384;-61
2022/10/27 04:44:39;;;;;;;23.38;16.88;;;;;;;11.24;100.00;102021.31;5052473;28;20464;-61
2022/10/27 04:47:04;;;;;;;24.15;16.33;;;;;;;11.22;100.00;102031.84;5052288;28;20025;-62
2022/10/27 04:49:30;;;;;;;22.63;16.58;;;;;;;11.19;100.00;102026.84;5052211;28;20044;-61
2022/10/27 04:51:55;;;;;;;25.08;16.40;;;;;;;11.19;100.00;102033.19;5052161;28;20033;-61
2022/10/27 04:54:20;;;;;;;22.73;15.90;;;;;;;11.17;100.00;102040.97;5052218;28;20028;-61
2022/10/27 04:56:46;;;;;;;24.27;16.52;;;;;;;11.14;100.00;102035.19;5052099;28;20059;-61
2022/10/27 04:59:11;;;;;;;23.30;15.50;;;;;;;11.16;100.00;102030.16;5051843;28;20025;-61
2022/10/27 05:01:38;;;;;;;24.20;16.58;;;;;;;11.18;100.00;102031.56;5051999;28;20072;-61
2022/10/27 05:04:03;;;;;;;26.05;16.40;;;;;;;11.19;100.00;102032.38;5052384;28;20033;-61
2022/10/27 05:06:29;;;;;;;22.10;15.30;;;;;;;11.20;100.00;102031.28;5052122;28;20059;-61
2022/10/27 05:08:54;;;;;;;24.25;15.50;;;;;;;11.20;100.00;102029.31;5051513;28;20437;-61
2022/10/27 05:11:19;;;;;;;22.88;16.15;;;;;;;11.21;100.00;102035.72;5052329;28;20033;-62
2022/10/27 05:13:48;;;;;;;21.63;14.35;;;;;;;11.19;100.00;102037.94;5052102;28;20025;-61
2022/10/27 05:16:13;;;;;;;22.48;14.60;;;;;;;11.21;100.00;102035.72;5051742;28;20498;-61
2022/10/27 05:18:39;;;;;;;23.17;14.35;;;;;;;11.21;100.00;102032.94;5051924;28;20075;-61
2022/10/27 05:21:04;;;;;;;22.63;14.02;;;;;;;11.21;100.00;102030.16;5051945;28;20033;-61
2022/10/27 05:23:29;;;;;;;22.13;13.98;;;;;;;11.19;100.00;102024.88;5051980;28;20037;-61
2022/10/27 05:25:55;;;;;;;21.05;13.98;;;;;;;11.21;100.00;102030.16;5051654;28;20045;-61
2022/10/27 05:28:21;;;;;;;22.15;13.93;;;;;;;11.20;100.00;102026.56;5051939;28;20032;-61
2022/10/27 05:30:47;;;;;;;20.50;13.65;;;;;;;11.20;100.00;102039.59;5051799;28;20029;-61
2022/10/27 05:33:13;;;;;;;21.90;13.20;;;;;;;11.19;100.00;102033.19;5051788;28;20036;-61
2022/10/27 05:35:38;;;;;;;22.42;13.82;;;;;;;11.19;100.00;102029.63;5051707;28;20032;-61
2022/10/27 05:38:03;;;;;;;21.75;13.77;;;;;;;11.21;100.00;102032.94;5051538;28;20041;-61
2022/10/27 05:40:33;;;;;;;23.33;14.45;;;;;;;11.22;100.00;102029.06;5051514;28;20444;-61
2022/10/27 05:42:59;;;;;;;22.77;14.50;;;;;;;11.23;100.00;102025.19;5051644;28;20033;-61
2022/10/27 05:45:25;;;;;;;22.90;14.52;;;;;;;11.22;100.00;102026.28;5051452;28;20103;-62
2022/10/27 05:48:04;;;;;;;24.17;14.60;;;;;;;11.22;100.00;102021.56;5051605;28;20136;-62
2022/10/27 05:50:30;;;;;;;23.50;14.68;;;;;;;11.23;100.00;102026.00;5051432;28;20097;-62
2022/10/27 05:52:56;;;;;;;22.38;14.43;;;;;;;11.28;100.00;102029.88;5051743;28;20032;-62
2022/10/27 05:55:22;;;;;;;21.33;15.25;;;;;;;11.29;100.00;102026.00;5051917;28;20028;-61
2022/10/27 05:57:59;;;;;;;20.80;14.50;;;;;;;11.32;100.00;102025.41;5051511;28;20032;-61
2022/10/27 06:00:29;;;;;;;21.52;15.80;;;;;;;11.32;100.00;102025.41;5051560;28;20029;-61
2022/10/27 06:02:56;;;;;;;21.25;14.57;;;;;;;11.32;100.00;102022.66;5051633;28;20025;-61
2022/10/27 06:05:21;;;;;;;23.38;14.82;;;;;;;11.32;100.00;102015.19;5051648;28;20063;-61
2022/10/27 06:07:47;;;;;;;23.67;15.00;;;;;;;11.34;100.00;102020.44;5051500;28;20025;-62
2022/10/27 06:10:12;;;;;;;22.88;14.80;;;;;;;11.34;100.00;102017.66;5051302;28;20032;-61
2022/10/27 06:12:38;;;;;;;22.73;14.55;;;;;;;11.35;100.00;102014.59;5051271;28;20025;-61
2022/10/27 06:15:04;;;;;;;22.20;14.73;;;;;;;11.35;100.00;102022.09;5051535;28;20116;-63
2022/10/27 06:17:29;;;;;;;22.92;15.38;;;;;;;11.35;100.00;102017.38;5051163;28;20114;-59
2022/10/27 06:19:54;;;;;;;22.15;14.10;;;;;;;11.37;100.00;102020.69;5051199;28;20028;-59
2022/10/27 06:22:20;;;;;;;22.58;14.55;;;;;;;11.37;100.00;102017.91;5053889;28;20044;-61
2022/10/27 06:24:45;;;;;;;22.25;14.18;;;;;;;11.37;100.00;102008.78;5054746;28;20063;-60
2022/10/27 06:27:10;;;;;;;20.42;14.40;;;;;;;11.38;100.00;102005.72;5054562;28;20052;-60
2022/10/27 06:29:35;;;;;;;22.85;14.43;;;;;;;11.39;100.00;102006.53;5054494;28;20163;-60
2022/10/27 06:32:01;;;;;;;24.38;16.17;;;;;;;11.42;100.00;102008.75;5054800;28;20029;-60
2022/10/27 06:34:26;;;;;;;22.40;14.40;;;;;;;11.42;100.00;102000.44;5054743;28;20375;-60
2022/10/27 06:36:51;;;;;;;21.15;14.02;;;;;;;11.46;100.00;102003.47;5054209;28;20036;-60
2022/10/27 06:39:16;;;;;;;21.65;14.85;;;;;;;11.46;100.00;102009.00;5054313;28;20025;-62
2022/10/27 06:41:42;;;;;;;22.05;14.05;;;;;;;11.49;100.00;102009.28;5054129;28;20029;-59
2022/10/27 06:44:07;;;;;;;21.88;12.90;;;;;;;11.49;100.00;102005.69;5054162;28;20128;-61
2022/10/27 06:46:33;;;;;;;21.30;13.75;;;;;;;11.49;100.00;101998.19;5054517;28;20115;-60
2022/10/27 06:48:59;;;;;;;20.83;13.15;;;;;;;11.50;100.00;101996.25;5053808;28;20024;-60
2022/10/27 06:51:25;;;;;;;20.63;13.30;;;;;;;11.48;100.00;101996.53;5054284;28;20031;-60
2022/10/27 06:53:50;;;;;;;22.25;13.13;;;;;;;11.53;100.00;101999.28;5053784;28;20096;-60
2022/10/27 06:56:17;;;;;;;19.42;12.85;;;;;;;11.53;100.00;101998.44;5053881;28;20025;-60
2022/10/27 06:58:43;;;;;;;21.80;12.73;;;;;;;11.53;100.00;101996.53;5053928;28;20495;-61
2022/10/27 07:01:08;;;;;;;22.58;12.65;;;;;;;11.54;100.00;101995.41;5054041;28;20029;-60
2022/10/27 07:03:34;;;;;;;21.27;12.07;;;;;;;11.57;100.00;101993.19;5053990;28;20476;-61
2022/10/27 07:05:59;;;;;;;20.52;12.60;;;;;;;11.56;100.00;101984.03;5054326;28;20117;-61
2022/10/27 07:08:25;;;;;;;20.98;12.80;;;;;;;11.60;100.00;101982.34;5052619;28;20028;-61
2022/10/27 07:10:51;;;;;;;20.10;12.50;;;;;;;11.65;100.00;101981.50;5053499;28;20071;-61
2022/10/27 07:13:16;;;;;;;20.77;12.95;;;;;;;11.67;100.00;101979.25;5053830;28;20407;-60
2022/10/27 07:15:42;;;;;;;18.40;11.60;;;;;;;11.70;100.00;101981.47;5053678;28;20029;-63
2022/10/27 07:18:09;;;;;;;21.20;12.75;;;;;;;11.75;100.00;101984.22;5053924;28;20326;-60
2022/10/27 07:20:37;;;;;;;20.42;12.25;;;;;;;11.78;100.00;101991.94;5052400;28;20029;-61
2022/10/27 07:23:03;;;;;;;21.23;12.60;;;;;;;11.82;100.00;101990.28;5054035;28;20025;-60
2022/10/27 07:25:30;;;;;;;21.40;12.82;;;;;;;11.86;100.00;102001.59;5053190;28;20389;-61
2022/10/27 07:27:57;;;;;;;20.73;13.00;;;;;;;11.88;100.00;101991.06;5053613;28;20040;-60
2022/10/27 07:30:28;;;;;;;20.75;12.88;;;;;;;11.91;100.00;101995.19;5053630;28;20040;-60
2022/10/27 07:32:53;;;;;;;20.80;11.98;;;;;;;11.93;100.00;101990.22;5053469;28;20037;-60
2022/10/27 07:35:19;;;;;;;19.83;12.93;;;;;;;11.95;100.00;101997.13;5053496;28;20032;-61
2022/10/27 07:37:45;;;;;;;19.80;12.20;;;;;;;11.99;100.00;101994.63;5053508;28;20538;-60
2022/10/27 07:40:12;;;;;;;20.42;11.70;;;;;;;12.03;100.00;101995.72;5053590;28;20047;-61
2022/10/27 07:42:48;;;;;;;18.73;11.27;;;;;;;12.07;100.00;101991.25;5053349;28;20104;-61
2022/10/27 07:45:15;;;;;;;20.95;12.65;;;;;;;12.14;100.00;101988.13;5053587;28;20033;-60
2022/10/27 07:47:44;;;;;;;20.88;12.38;;;;;;;12.19;100.00;101981.72;5053300;28;20055;-61
2022/10/27 07:50:10;;;;;;;23.77;13.10;;;;;;;12.29;100.00;101985.25;5053537;28;20133;-61
2022/10/27 07:52:40;;;;;;;20.95;12.23;;;;;;;12.39;100.00;101989.88;5053256;28;20070;-62
2022/10/27 07:55:06;;;;;;;23.00;12.30;;;;;;;12.48;100.00;101990.91;5053667;28;20032;-61
2022/10/27 07:57:31;;;;;;;20.95;12.48;;;;;;;12.59;100.00;101993.59;5053090;28;20492;-61
2022/10/27 07:59:57;;;;;;;20.27;12.30;;;;;;;12.68;100.00;101993.78;5053279;28;20024;-61
2022/10/27 08:02:22;;;;;;;20.48;12.02;;;;;;;12.80;100.00;101986.72;5053137;28;20047;-60
2022/10/27 08:04:47;;;;;;;20.45;12.02;;;;;;;12.90;100.00;101991.34;5052983;28;20386;-61
2022/10/27 08:07:12;;;;;;;19.55;12.15;;;;;;;13.02;100.00;101996.50;5052956;28;20044;-61
2022/10/27 08:09:38;;;;;;;21.48;12.07;;;;;;;13.14;100.00;101996.06;5053056;28;20502;-61
2022/10/27 08:12:04;;;;;;;20.92;12.10;;;;;;;13.21;100.00;101995.72;5053019;28;20032;-61
2022/10/27 08:14:29;;;;;;;20.33;11.65;;;;;;;13.30;100.00;101993.94;5052858;28;20028;-61
2022/10/27 08:16:56;;;;;;;19.95;11.18;;;;;;;13.31;100.00;101989.22;5053011;28;20025;-61
2022/10/27 08:19:21;;;;;;;21.20;10.88;;;;;;;13.40;100.00;101995.81;5052775;28;20036;-60
2022/10/27 08:21:47;;;;;;;19.30;11.38;;;;;;;13.44;100.00;102005.19;5052615;28;20037;-62
2022/10/27 08:24:12;;;;;;;20.88;11.15;;;;;;;13.48;100.00;102000.72;5052945;28;20056;-61
2022/10/27 08:26:37;;;;;;;20.90;11.70;;;;;;;13.52;100.00;102003.72;5050842;28;20048;-61
2022/10/27 08:29:03;;;;;;;18.73;10.95;;;;;;;13.56;100.00;101993.66;5052338;28;20029;-62
2022/10/27 08:31:28;;;;;;;19.65;11.32;;;;;;;13.60;100.00;101975.25;5052366;28;20070;-61
2022/10/27 08:33:54;;;;;;;19.17;10.45;;;;;;;13.64;100.00;101965.19;5052142;28;20056;-61
2022/10/27 08:36:19;;;;;;;20.77;11.02;;;;;;;13.66;100.00;101965.69;5052235;28;20353;-62
2022/10/27 08:38:44;;;;;;;19.27;10.68;;;;;;;13.73;100.00;101980.09;5052227;28;20043;-61
2022/10/27 08:41:22;;;;;;;21.00;11.15;;;;;;;13.81;100.00;101975.78;5052093;28;20044;-61
2022/10/27 08:44:08;;;;;;;19.55;11.38;;;;;;;13.91;100.00;101960.91;5051541;28;20033;-60
2022/10/27 08:47:03;;;;;;;21.77;11.40;;;;;;;14.07;100.00;101971.78;5050586;28;20025;-61
2022/10/27 08:49:56;;;;;;;22.77;11.32;;;;;;;14.15;100.00;101971.94;5050719;28;20129;-61
2022/10/27 08:52:39;;;;;;;18.02;10.55;;;;;;;14.32;100.00;101956.63;5051996;28;20051;-61
2022/10/27 08:55:13;;;;;;;17.47;10.40;;;;;;;14.48;100.00;101971.94;5052063;28;20045;-61
2022/10/27 08:57:57;;;;;;;20.60;10.63;;;;;;;14.59;100.00;101969.81;5051979;28;20029;-61
2022/10/27 09:00:22;;;;;;;20.77;10.50;;;;;;;14.75;98.40;101963.97;5052343;28;20025;-63
2022/10/27 09:02:55;;;;;;;17.55;10.25;;;;;;;14.87;97.25;101961.53;5052238;28;20021;-61
2022/10/27 09:05:41;;;;;;;20.40;10.52;;;;;;;14.99;97.14;101952.66;5052141;28;20087;-61
2022/10/27 09:08:20;;;;;;;18.67;10.40;;;;;;;15.10;97.21;101953.25;5052066;28;20105;-61
2022/10/27 09:10:45;;;;;;;17.15;9.88;;;;;;;15.19;95.75;101953.38;5052059;28;20086;-61
2022/10/27 09:13:29;;;;;;;18.45;9.80;;;;;;;15.25;95.22;101944.59;5051841;28;20069;-61
2022/10/27 09:16:00;;;;;;;20.52;9.98;;;;;;;15.33;93.20;101922.69;5051927;28;20028;-61
2022/10/27 09:18:48;;;;;;;17.95;10.13;;;;;;;15.46;94.90;101918.22;5050471;28;20029;-61
2022/10/27 09:21:19;;;;;;;16.35;9.50;;;;;;;15.61;91.91;101929.00;5052065;28;20035;-60
2022/10/27 09:23:50;;;;;;;14.57;9.02;;;;;;;15.71;90.74;101922.38;5051964;28;20029;-61
2022/10/27 09:26:18;;;;;;;16.98;9.00;;;;;;;15.80;90.64;101920.50;5051294;28;20045;-60
2022/10/27 09:28:48;;;;;;;15.68;9.32;;;;;;;15.92;88.93;101927.50;5051980;28;20090;-61
2022/10/27 09:31:17;;;;;;;16.23;9.10;;;;;;;16.02;89.16;101928.06;5051834;28;20028;-61
2022/10/27 09:33:52;;;;;;;15.73;9.00;;;;;;;16.16;87.83;101933.59;5051937;28;20025;-61
2022/10/27 09:36:20;;;;;;;15.68;9.65;;;;;;;16.25;86.98;101922.47;5052046;28;20017;-61
2022/10/27 09:38:45;;;;;;;16.98;9.60;;;;;;;16.36;86.71;101921.06;5051738;28;20044;-62
2022/10/27 09:41:11;;;;;;;17.25;9.20;;;;;;;16.45;85.66;101917.50;5051737;28;20033;-61
2022/10/27 09:43:36;;;;;;;14.75;9.07;;;;;;;16.50;86.05;101917.38;5051527;28;20036;-62
2022/10/27 09:46:11;;;;;;;15.55;9.63;;;;;;;16.59;84.66;101914.59;5051854;28;20156;-60
2022/10/27 09:48:37;;;;;;;16.90;9.70;;;;;;;16.64;84.40;101908.88;5051789;28;20025;-60
2022/10/27 09:51:16;;;;;;;15.90;9.60;;;;;;;16.71;85.58;101911.22;5050284;28;20048;-61
2022/10/27 09:53:47;;;;;;;16.88;9.43;;;;;;;16.76;82.96;101899.88;5051905;28;20025;-61
2022/10/27 09:56:34;;;;;;;15.75;9.40;;;;;;;16.84;84.80;101888.75;5054266;28;20433;-61
2022/10/27 09:59:03;;;;;;;15.75;9.30;;;;;;;16.93;81.62;101891.59;5055542;28;20032;-61
2022/10/27 10:01:40;;;;;;;14.82;9.13;;;;;;;17.03;83.33;101890.47;5055620;28;20029;-60
2022/10/27 10:04:20;;;;;;;15.68;9.35;;;;;;;17.09;82.74;101885.56;5055403;28;20057;-61
2022/10/27 10:06:53;;;;;;;14.80;9.32;;;;;;;17.23;82.83;101899.41;5055397;28;20055;-61
2022/10/27 10:09:27;;;;;;;16.73;9.25;;;;;;;17.36;82.34;101901.22;5055597;28;20056;-61
2022/10/27 10:12:18;;;;;;;15.52;9.00;;;;;;;17.43;82.38;101911.94;5055898;28;20025;-61
2022/10/27 10:14:43;;;;;;;15.52;8.95;;;;;;;17.55;79.66;101911.28;5055180;28;20032;-61
2022/10/27 10:17:21;;;;;;;14.98;8.80;;;;;;;17.66;80.69;101897.81;5055085;28;20028;-61
2022/10/27 10:19:46;;;;;;;15.13;8.82;;;;;;;17.78;78.85;101893.19;5055274;28;20032;-60
2022/10/27 10:22:20;;;;;;;13.52;8.82;;;;;;;17.85;78.87;101875.06;5055021;28;20025;-61
2022/10/27 10:24:46;;;;;;;16.00;9.05;;;;;;;17.93;78.82;101883.47;5054915;28;20409;-61
2022/10/27 10:27:28;;;;;;;14.85;9.07;;;;;;;18.00;77.11;101882.16;5054648;28;20123;-61
2022/10/27 10:29:56;;;;;;;14.77;8.48;;;;;;;18.08;76.46;101876.56;5055134;28;20040;-60
2022/10/27 10:32:24;;;;;;;13.68;8.30;;;;;;;18.13;75.63;101883.13;5054696;28;20406;-60
2022/10/27 10:34:52;;;;;;;13.00;8.75;;;;;;;18.12;75.62;101871.09;5054708;28;20433;-60
2022/10/27 10:37:38;;;;;;;13.88;8.95;;;;;;;18.15;77.83;101864.00;5054569;28;20056;-61
2022/10/27 10:40:12;;;;;;;15.65;8.90;;;;;;;18.20;76.34;101864.66;5054694;28;20025;-61
2022/10/27 10:42:38;;;;;;;16.77;9.75;;;;;;;18.23;75.42;101877.97;5054769;28;20445;-61
2022/10/27 10:45:16;;;;;;;12.73;8.90;;;;;;;18.29;76.31;101875.81;5054328;28;20052;-61
2022/10/27 10:47:46;;;;;;;14.70;9.13;;;;;;;18.35;77.11;101873.66;5054399;28;20115;-62
2022/10/27 10:50:13;;;;;;;18.10;9.32;;;;;;;18.42;76.22;101865.56;5054363;28;20473;-61
2022/10/27 10:52:44;;;;;;;15.32;9.18;;;;;;;18.46;75.06;101863.75;5054449;28;20104;-61
2022/10/27 10:55:33;;;;;;;16.25;9.38;;;;;;;18.48;76.93;101855.00;5054563;28;20025;-61
2022/10/27 10:57:59;;;;;;;16.40;9.40;;;;;;;18.53;75.13;101860.41;5054314;28;20056;-62
2022/10/27 11:00:26;;;;;;;14.40;9.35;;;;;;;18.60;74.91;101855.09;5054252;28;20061;-61
2022/10/27 11:02:51;;;;;;;13.65;8.80;;;;;;;18.64;74.47;101849.66;5054185;28;20389;-61
2022/10/27 11:05:30;;;;;;;16.13;9.50;;;;;;;18.66;75.82;101839.75;5054463;28;20143;-61
2022/10/27 11:07:55;;;;;;;16.20;8.90;;;;;;;18.71;73.44;101847.97;5052108;28;20059;-61
2022/10/27 11:10:29;;;;;;;16.52;9.70;;;;;;;18.78;73.23;101843.81;5053971;28;20057;-62
2022/10/27 11:13:03;;;;;;;;;;;;;;;18.83;77.35;101838.03;5054677;28;20032;-61